sensor_id;sensor_type;location;lat;lon;timestamp;pressure;altitude;pressure_sealevel;temperature;humidity
68169;BME280;54981;50.206;15.978;2023-05-14T00:02:06;99198.47;;;11.84;100.00
68169;BME280;54981;50.206;15.978;2023-05-14T00:04:37;99200.19;;;11.85;100.00
68169;BME280;54981;50.206;15.978;2023-05-14T00:07:07;99203.59;;;11.88;100.00
68169;BME280;54981;50.206;15.978;2023-05-14T00:09:37;99196.44;;;11.89;100.00
68169;BME280;54981;50.206;15.978;2023-05-14T00:12:08;99194.69;;;11.88;100.00
68169;BME280;54981;50.206;15.978;2023-05-14T00:14:38;99199.88;;;11.91;100.00
68169;BME280;54981;50.206;15.978;2023-05-14T00:17:08;99197.13;;;11.92;100.00
68169;BME280;54981;50.206;15.978;2023-05-14T00:19:39;99194.56;;;11.91;100.00
68169;BME280;54981;50.206;15.978;2023-05-14T00:22:11;99204.44;;;11.89;100.00
68169;BME280;54981;50.206;15.978;2023-05-14T00:24:41;99199.19;;;11.87;100.00
68169;BME280;54981;50.206;15.978;2023-05-14T00:27:11;99201.94;;;11.86;100.00
68169;BME280;54981;50.206;15.978;2023-05-14T00:29:42;99185.22;;;11.82;100.00
68169;BME280;54981;50.206;15.978;2023-05-14T00:32:12;99193.28;;;11.81;100.00
68169;BME280;54981;50.206;15.978;2023-05-14T00:34:42;99188.91;;;11.80;100.00
68169;BME280;54981;50.206;15.978;2023-05-14T00:37:13;99187.34;;;11.76;100.00
68169;BME280;54981;50.206;15.978;2023-05-14T00:39:43;99192.78;;;11.74;100.00
68169;BME280;54981;50.206;15.978;2023-05-14T00:42:13;99188.13;;;11.78;100.00
68169;BME280;54981;50.206;15.978;2023-05-14T00:44:44;99187.97;;;11.81;100.00
68169;BME280;54981;50.206;15.978;2023-05-14T00:47:14;99194.06;;;11.83;100.00
68169;BME280;54981;50.206;15.978;2023-05-14T00:49:45;99185.91;;;11.86;100.00
68169;BME280;54981;50.206;15.978;2023-05-14T00:52:15;99181.50;;;11.85;100.00
68169;BME280;54981;50.206;15.978;2023-05-14T00:54:47;99184.19;;;11.85;100.00
68169;BME280;54981;50.206;15.978;2023-05-14T00:57:18;99176.44;;;11.80;100.00
68169;BME280;54981;50.206;15.978;2023-05-14T00:59:48;99181.69;;;11.82;100.00
68169;BME280;54981;50.206;15.978;2023-05-14T01:02:19;99180.66;;;11.84;100.00
68169;BME280;54981;50.206;15.978;2023-05-14T01:04:50;99180.72;;;11.83;100.00
68169;BME280;54981;50.206;15.978;2023-05-14T01:07:43;99183.50;;;11.81;100.00
68169;BME280;54981;50.206;15.978;2023-05-14T01:13:40;99178.06;;;11.83;100.00
68169;BME280;54981;50.206;15.978;2023-05-14T01:16:15;99171.69;;;11.85;100.00
68169;BME280;54981;50.206;15.978;2023-05-14T01:18:49;99176.97;;;11.87;100.00
68169;BME280;54981;50.206;15.978;2023-05-14T01:21:37;99169.75;;;11.89;100.00
68169;BME280;54981;50.206;15.978;2023-05-14T01:24:09;99169.75;;;11.89;100.00
68169;BME280;54981;50.206;15.978;2023-05-14T01:26:39;99162.59;;;11.89;100.00
68169;BME280;54981;50.206;15.978;2023-05-14T01:29:17;99163.31;;;11.93;100.00
68169;BME280;54981;50.206;15.978;2023-05-14T01:31:50;99167.75;;;11.92;100.00
68169;BME280;54981;50.206;15.978;2023-05-14T01:34:22;99164.06;;;11.95;100.00
68169;BME280;54981;50.206;15.978;2023-05-14T01:36:54;99166.47;;;12.00;100.00
68169;BME280;54981;50.206;15.978;2023-05-14T01:39:26;99157.53;;;12.01;100.00
68169;BME280;54981;50.206;15.978;2023-05-14T01:41:57;99167.59;;;11.96;100.00
68169;BME280;54981;50.206;15.978;2023-05-14T01:44:29;99165.59;;;11.99;100.00
68169;BME280;54981;50.206;15.978;2023-05-14T01:47:00;99162.00;;;12.00;100.00
68169;BME280;54981;50.206;15.978;2023-05-14T01:49:30;99166.47;;;12.00;100.00
68169;BME280;54981;50.206;15.978;2023-05-14T01:52:01;99155.63;;;12.03;100.00
68169;BME280;54981;50.206;15.978;2023-05-14T01:54:32;99154.75;;;12.02;100.00
68169;BME280;54981;50.206;15.978;2023-05-14T01:57:02;99149.59;;;11.99;100.00
68169;BME280;54981;50.206;15.978;2023-05-14T01:59:32;99152.19;;;12.01;100.00
68169;BME280;54981;50.206;15.978;2023-05-14T02:02:03;99148.66;;;12.00;100.00
68169;BME280;54981;50.206;15.978;2023-05-14T02:04:33;99149.41;;;12.02;100.00
68169;BME280;54981;50.206;15.978;2023-05-14T02:07:03;99148.38;;;12.05;100.00
68169;BME280;54981;50.206;15.978;2023-05-14T02:09:34;99147.63;;;12.03;100.00
68169;BME280;54981;50.206;15.978;2023-05-14T02:12:06;99152.09;;;12.02;100.00
68169;BME280;54981;50.206;15.978;2023-05-14T02:14:37;99144.06;;;12.02;100.00
68169;BME280;54981;50.206;15.978;2023-05-14T02:17:07;99146.75;;;12.02;100.00
68169;BME280;54981;50.206;15.978;2023-05-14T02:19:38;99152.97;;;12.03;100.00
68169;BME280;54981;50.206;15.978;2023-05-14T02:22:08;99153.91;;;12.02;100.00
68169;BME280;54981;50.206;15.978;2023-05-14T02:24:38;99156.56;;;12.02;100.00
68169;BME280;54981;50.206;15.978;2023-05-14T02:27:09;99152.00;;;12.04;100.00
68169;BME280;54981;50.206;15.978;2023-05-14T02:29:41;99154.84;;;12.01;100.00
68169;BME280;54981;50.206;15.978;2023-05-14T02:32:12;99158.38;;;12.01;100.00
68169;BME280;54981;50.206;15.978;2023-05-14T02:34:42;99157.59;;;11.99;100.00
68169;BME280;54981;50.206;15.978;2023-05-14T02:37:12;99149.59;;;11.99;100.00
68169;BME280;54981;50.206;15.978;2023-05-14T02:39:43;99149.59;;;11.99;100.00
68169;BME280;54981;50.206;15.978;2023-05-14T02:42:13;99144.34;;;11.98;100.00
68169;BME280;54981;50.206;15.978;2023-05-14T02:44:43;99144.25;;;11.99;100.00
68169;BME280;54981;50.206;15.978;2023-05-14T02:47:14;99142.56;;;11.98;100.00
68169;BME280;54981;50.206;15.978;2023-05-14T02:49:44;99135.41;;;11.99;100.00
68169;BME280;54981;50.206;15.978;2023-05-14T02:52:14;99134.56;;;11.98;100.00
68169;BME280;54981;50.206;15.978;2023-05-14T02:54:45;99132.81;;;11.97;100.00
68169;BME280;54981;50.206;15.978;2023-05-14T02:57:15;99131.66;;;11.85;100.00
68169;BME280;54981;50.206;15.978;2023-05-14T02:59:46;99126.88;;;11.76;100.00
68169;BME280;54981;50.206;15.978;2023-05-14T03:02:16;99131.34;;;11.76;100.00
68169;BME280;54981;50.206;15.978;2023-05-14T03:04:46;99130.22;;;11.80;100.00
68169;BME280;54981;50.206;15.978;2023-05-14T03:07:17;99124.13;;;11.78;100.00
68169;BME280;54981;50.206;15.978;2023-05-14T03:09:47;99125.16;;;11.75;100.00
68169;BME280;54981;50.206;15.978;2023-05-14T03:12:18;99132.22;;;11.76;100.00
68169;BME280;54981;50.206;15.978;2023-05-14T03:14:49;99131.34;;;11.76;100.00
68169;BME280;54981;50.206;15.978;2023-05-14T03:17:19;99129.44;;;11.78;100.00
68169;BME280;54981;50.206;15.978;2023-05-14T03:19:50;99134.97;;;11.75;100.00
68169;BME280;54981;50.206;15.978;2023-05-14T03:22:20;99126.38;;;11.69;100.00
68169;BME280;54981;50.206;15.978;2023-05-14T03:24:51;99135.22;;;11.70;100.00
68169;BME280;54981;50.206;15.978;2023-05-14T03:27:21;99130.16;;;11.65;100.00
68169;BME280;54981;50.206;15.978;2023-05-14T03:29:51;99126.69;;;11.63;100.00
68169;BME280;54981;50.206;15.978;2023-05-14T03:32:22;99129.53;;;11.60;100.00
68169;BME280;54981;50.206;15.978;2023-05-14T03:34:52;99125.50;;;11.53;100.00
68169;BME280;54981;50.206;15.978;2023-05-14T03:37:23;99125.50;;;11.53;100.00
68169;BME280;54981;50.206;15.978;2023-05-14T03:39:53;99130.25;;;11.48;100.00
68169;BME280;54981;50.206;15.978;2023-05-14T03:42:24;99119.75;;;11.45;100.00
68169;BME280;54981;50.206;15.978;2023-05-14T03:44:54;99122.56;;;11.42;100.00
68169;BME280;54981;50.206;15.978;2023-05-14T03:47:24;99117.41;;;11.39;100.00
68169;BME280;54981;50.206;15.978;2023-05-14T03:49:55;99122.91;;;11.36;100.00
68169;BME280;54981;50.206;15.978;2023-05-14T03:52:25;99119.03;;;11.41;100.00
68169;BME280;54981;50.206;15.978;2023-05-14T03:54:56;99121.38;;;11.47;100.00
68169;BME280;54981;50.206;15.978;2023-05-14T03:57:27;99128.25;;;11.51;100.00
68169;BME280;54981;50.206;15.978;2023-05-14T03:59:58;99123.69;;;11.54;100.00
68169;BME280;54981;50.206;15.978;2023-05-14T04:02:28;99120.84;;;11.57;100.00
68169;BME280;54981;50.206;15.978;2023-05-14T04:04:58;99116.41;;;11.57;100.00
68169;BME280;54981;50.206;15.978;2023-05-14T04:07:29;99120.59;;;11.61;100.00
68169;BME280;54981;50.206;15.978;2023-05-14T04:09:59;99119.13;;;11.56;100.00
68169;BME280;54981;50.206;15.978;2023-05-14T04:12:30;99115.34;;;11.60;100.00
68169;BME280;54981;50.206;15.978;2023-05-14T04:15:00;99105.88;;;11.54;100.00
68169;BME280;54981;50.206;15.978;2023-05-14T04:17:30;99109.13;;;11.59;100.00
68169;BME280;54981;50.206;15.978;2023-05-14T04:20:01;99113.03;;;11.69;100.00
68169;BME280;54981;50.206;15.978;2023-05-14T04:22:31;99103.13;;;11.71;100.00
68169;BME280;54981;50.206;15.978;2023-05-14T04:25:02;99110.78;;;11.78;100.00
68169;BME280;54981;50.206;15.978;2023-05-14T04:27:32;99110.69;;;11.79;100.00
68169;BME280;54981;50.206;15.978;2023-05-14T04:30:03;99107.78;;;11.84;100.00
68169;BME280;54981;50.206;15.978;2023-05-14T04:32:34;99112.75;;;11.90;100.00
68169;BME280;54981;50.206;15.978;2023-05-14T04:35:04;99111.91;;;11.89;100.00
68169;BME280;54981;50.206;15.978;2023-05-14T04:37:35;99108.53;;;11.70;100.00
68169;BME280;54981;50.206;15.978;2023-05-14T04:40:07;99105.53;;;11.76;100.00
68169;BME280;54981;50.206;15.978;2023-05-14T04:42:38;99105.03;;;11.69;100.00
68169;BME280;54981;50.206;15.978;2023-05-14T04:45:09;99110.25;;;11.71;100.00
68169;BME280;54981;50.206;15.978;2023-05-14T04:47:40;99104.84;;;11.72;100.00
68169;BME280;54981;50.206;15.978;2023-05-14T04:50:10;99102.19;;;11.72;100.00
68169;BME280;54981;50.206;15.978;2023-05-14T04:52:41;99107.91;;;11.81;100.00
68169;BME280;54981;50.206;15.978;2023-05-14T04:55:11;99094.09;;;11.90;100.00
68169;BME280;54981;50.206;15.978;2023-05-14T04:57:41;99096.94;;;11.87;100.00
68169;BME280;54981;50.206;15.978;2023-05-14T05:00:12;99089.53;;;11.92;100.00
68169;BME280;54981;50.206;15.978;2023-05-14T05:02:43;99093.63;;;11.98;100.00
68169;BME280;54981;50.206;15.978;2023-05-14T05:05:13;99094.06;;;12.06;100.00
68169;BME280;54981;50.206;15.978;2023-05-14T05:07:43;99083.94;;;12.27;100.00
68169;BME280;54981;50.206;15.978;2023-05-14T05:10:14;99079.56;;;12.40;100.00
68169;BME280;54981;50.206;15.978;2023-05-14T05:12:44;99083.59;;;12.47;100.00
68169;BME280;54981;50.206;15.978;2023-05-14T05:15:15;99080.81;;;12.34;100.00
68169;BME280;54981;50.206;15.978;2023-05-14T05:17:45;99080.63;;;12.52;100.00
68169;BME280;54981;50.206;15.978;2023-05-14T05:20:16;99079.97;;;12.63;100.00
68169;BME280;54981;50.206;15.978;2023-05-14T05:22:46;99079.59;;;12.69;100.00
68169;BME280;54981;50.206;15.978;2023-05-14T05:25:17;99072.56;;;12.82;100.00
68169;BME280;54981;50.206;15.978;2023-05-14T05:27:47;99079.97;;;12.91;100.00
68169;BME280;54981;50.206;15.978;2023-05-14T05:30:17;99075.59;;;13.05;100.00
68169;BME280;54981;50.206;15.978;2023-05-14T05:32:48;99071.09;;;13.05;100.00
68169;BME280;54981;50.206;15.978;2023-05-14T05:35:18;99072.41;;;13.27;100.00
68169;BME280;54981;50.206;15.978;2023-05-14T05:37:49;99066.50;;;13.36;100.00
68169;BME280;54981;50.206;15.978;2023-05-14T05:40:19;99066.69;;;13.47;100.00
68169;BME280;54981;50.206;15.978;2023-05-14T05:42:50;99064.06;;;13.60;100.00
68169;BME280;54981;50.206;15.978;2023-05-14T05:45:20;99065.94;;;13.72;100.00
68169;BME280;54981;50.206;15.978;2023-05-14T05:47:50;99075.81;;;13.84;100.00
68169;BME280;54981;50.206;15.978;2023-05-14T05:50:21;99069.84;;;13.94;100.00
68169;BME280;54981;50.206;15.978;2023-05-14T05:52:51;99067.03;;;14.22;100.00
68169;BME280;54981;50.206;15.978;2023-05-14T05:55:22;99062.44;;;14.24;100.00
68169;BME280;54981;50.206;15.978;2023-05-14T05:57:52;99066.19;;;14.35;100.00
68169;BME280;54981;50.206;15.978;2023-05-14T06:00:23;99071.47;;;14.49;100.00
68169;BME280;54981;50.206;15.978;2023-05-14T06:02:53;99070.94;;;14.44;100.00
68169;BME280;54981;50.206;15.978;2023-05-14T06:05:24;99071.56;;;14.47;100.00
68169;BME280;54981;50.206;15.978;2023-05-14T06:07:54;99069.75;;;14.48;100.00
68169;BME280;54981;50.206;15.978;2023-05-14T06:10:24;99068.03;;;14.47;100.00
68169;BME280;54981;50.206;15.978;2023-05-14T06:12:55;99069.94;;;14.45;100.00
68169;BME280;54981;50.206;15.978;2023-05-14T06:15:25;99071.56;;;14.47;100.00
68169;BME280;54981;50.206;15.978;2023-05-14T06:17:56;99071.31;;;14.65;100.00
68169;BME280;54981;50.206;15.978;2023-05-14T06:20:26;99067.44;;;14.82;100.00
68169;BME280;54981;50.206;15.978;2023-05-14T06:22:57;99065.91;;;14.90;100.00
68169;BME280;54981;50.206;15.978;2023-05-14T06:25:27;99065.47;;;15.09;100.00
68169;BME280;54981;50.206;15.978;2023-05-14T06:27:57;99059.81;;;15.38;100.00
68169;BME280;54981;50.206;15.978;2023-05-14T06:30:28;99057.41;;;15.59;100.00
68169;BME280;54981;50.206;15.978;2023-05-14T06:32:58;99059.63;;;15.65;100.00
68169;BME280;54981;50.206;15.978;2023-05-14T06:35:28;99057.19;;;15.86;100.00
68169;BME280;54981;50.206;15.978;2023-05-14T06:37:59;99054.59;;;16.09;100.00
68169;BME280;54981;50.206;15.978;2023-05-14T06:40:29;99058.25;;;16.08;100.00
68169;BME280;54981;50.206;15.978;2023-05-14T06:43:00;99059.25;;;16.07;100.00
68169;BME280;54981;50.206;15.978;2023-05-14T06:45:30;99063.59;;;15.96;100.00
68169;BME280;54981;50.206;15.978;2023-05-14T06:48:00;99064.41;;;15.86;100.00
68169;BME280;54981;50.206;15.978;2023-05-14T06:50:31;99064.47;;;15.97;100.00
68169;BME280;54981;50.206;15.978;2023-05-14T06:53:01;99060.31;;;16.04;100.00
68169;BME280;54981;50.206;15.978;2023-05-14T06:55:31;99056.31;;;16.10;100.00
68169;BME280;54981;50.206;15.978;2023-05-14T06:58:02;99068.16;;;16.07;100.00
68169;BME280;54981;50.206;15.978;2023-05-14T07:00:33;99054.63;;;16.20;100.00
68169;BME280;54981;50.206;15.978;2023-05-14T07:03:03;99050.28;;;16.30;100.00
68169;BME280;54981;50.206;15.978;2023-05-14T07:05:33;99052.28;;;16.51;100.00
68169;BME280;54981;50.206;15.978;2023-05-14T07:08:04;99054.75;;;16.65;100.00
68169;BME280;54981;50.206;15.978;2023-05-14T07:10:34;99048.53;;;16.76;100.00
68169;BME280;54981;50.206;15.978;2023-05-14T07:13:05;99048.56;;;16.87;100.00
68169;BME280;54981;50.206;15.978;2023-05-14T07:15:35;99039.63;;;16.98;100.00
68169;BME280;54981;50.206;15.978;2023-05-14T07:18:06;99041.84;;;16.93;100.00
68169;BME280;54981;50.206;15.978;2023-05-14T07:20:36;99038.03;;;16.95;100.00
68169;BME280;54981;50.206;15.978;2023-05-14T07:23:06;99033.28;;;16.99;100.00
68169;BME280;54981;50.206;15.978;2023-05-14T07:25:37;99028.03;;;17.09;100.00
68169;BME280;54981;50.206;15.978;2023-05-14T07:28:07;99033.03;;;17.13;100.00
68169;BME280;54981;50.206;15.978;2023-05-14T07:30:37;99028.41;;;17.15;100.00
68169;BME280;54981;50.206;15.978;2023-05-14T07:33:08;99030.81;;;17.18;100.00
68169;BME280;54981;50.206;15.978;2023-05-14T07:35:38;99024.66;;;17.39;100.00
68169;BME280;54981;50.206;15.978;2023-05-14T07:38:09;99025.38;;;17.52;100.00
68169;BME280;54981;50.206;15.978;2023-05-14T07:40:39;99024.38;;;17.64;100.00
68169;BME280;54981;50.206;15.978;2023-05-14T07:43:09;99037.06;;;17.85;100.00
68169;BME280;54981;50.206;15.978;2023-05-14T07:45:41;99021.06;;;18.04;100.00
68169;BME280;54981;50.206;15.978;2023-05-14T07:48:11;99016.94;;;18.21;100.00
68169;BME280;54981;50.206;15.978;2023-05-14T07:50:41;99015.53;;;18.27;100.00
68169;BME280;54981;50.206;15.978;2023-05-14T07:53:12;99010.06;;;17.53;100.00
68169;BME280;54981;50.206;15.978;2023-05-14T07:55:43;99001.56;;;17.80;100.00
68169;BME280;54981;50.206;15.978;2023-05-14T07:58:14;99011.44;;;17.79;100.00
68169;BME280;54981;50.206;15.978;2023-05-14T08:00:45;99002.53;;;17.90;100.00
68169;BME280;54981;50.206;15.978;2023-05-14T08:03:15;99001.97;;;17.96;100.00
68169;BME280;54981;50.206;15.978;2023-05-14T08:05:46;99003.16;;;17.82;100.00
68169;BME280;54981;50.206;15.978;2023-05-14T08:08:16;99002.38;;;17.92;98.67
68169;BME280;54981;50.206;15.978;2023-05-14T08:10:46;98996.88;;;17.93;100.00
68169;BME280;54981;50.206;15.978;2023-05-14T08:13:17;98997.28;;;18.09;100.00
68169;BME280;54981;50.206;15.978;2023-05-14T08:15:47;98992.63;;;18.12;97.65
68169;BME280;54981;50.206;15.978;2023-05-14T08:18:18;98990.44;;;18.05;92.87
68169;BME280;54981;50.206;15.978;2023-05-14T08:20:48;98982.34;;;18.26;100.00
68169;BME280;54981;50.206;15.978;2023-05-14T08:23:19;98971.28;;;18.29;90.82
68169;BME280;54981;50.206;15.978;2023-05-14T08:25:49;98966.19;;;18.26;87.27
68169;BME280;54981;50.206;15.978;2023-05-14T08:28:19;98966.44;;;18.23;84.23
68169;BME280;54981;50.206;15.978;2023-05-14T08:30:50;98955.63;;;18.44;83.82
68169;BME280;54981;50.206;15.978;2023-05-14T08:33:20;98945.72;;;18.45;84.09
68169;BME280;54981;50.206;15.978;2023-05-14T08:35:54;98950.34;;;18.73;84.84
68169;BME280;54981;50.206;15.978;2023-05-14T08:38:25;98940.34;;;18.85;80.44
68169;BME280;54981;50.206;15.978;2023-05-14T08:40:56;98951.34;;;18.93;87.70
68169;BME280;54981;50.206;15.978;2023-05-14T08:43:44;98944.59;;;18.78;83.82
68169;BME280;54981;50.206;15.978;2023-05-14T08:46:22;98947.47;;;18.35;97.67
68169;BME280;54981;50.206;15.978;2023-05-14T08:48:57;98938.06;;;17.98;85.34
68169;BME280;54981;50.206;15.978;2023-05-14T08:51:28;98940.69;;;18.09;94.25
68169;BME280;54981;50.206;15.978;2023-05-14T08:54:01;98934.09;;;17.81;100.00
68169;BME280;54981;50.206;15.978;2023-05-14T08:56:32;98927.31;;;17.87;96.61
68169;BME280;54981;50.206;15.978;2023-05-14T08:59:02;98922.63;;;18.00;92.86
68169;BME280;54981;50.206;15.978;2023-05-14T09:01:33;98925.72;;;17.63;91.32
68169;BME280;54981;50.206;15.978;2023-05-14T09:04:05;98917.50;;;17.65;96.49
68169;BME280;54981;50.206;15.978;2023-05-14T09:06:38;98912.63;;;17.91;100.00
68169;BME280;54981;50.206;15.978;2023-05-14T09:09:09;98910.81;;;18.22;97.21
68169;BME280;54981;50.206;15.978;2023-05-14T09:11:41;98914.53;;;18.52;100.00
68169;BME280;54981;50.206;15.978;2023-05-14T09:14:12;98906.81;;;18.38;100.00
68169;BME280;54981;50.206;15.978;2023-05-14T09:16:44;98903.22;;;18.37;88.28
68169;BME280;54981;50.206;15.978;2023-05-14T09:19:15;98909.19;;;18.31;96.33
68169;BME280;54981;50.206;15.978;2023-05-14T09:21:48;98906.19;;;18.03;87.10
68169;BME280;54981;50.206;15.978;2023-05-14T09:24:24;98900.84;;;18.44;86.13
68169;BME280;54981;50.206;15.978;2023-05-14T09:26:56;98902.50;;;18.66;79.42
68169;BME280;54981;50.206;15.978;2023-05-14T09:29:28;98893.81;;;18.83;87.20
68169;BME280;54981;50.206;15.978;2023-05-14T09:31:59;98884.72;;;18.84;81.14
68169;BME280;54981;50.206;15.978;2023-05-14T09:34:34;98886.63;;;19.23;76.57
68169;BME280;54981;50.206;15.978;2023-05-14T09:37:07;98887.34;;;19.34;78.04
68169;BME280;54981;50.206;15.978;2023-05-14T09:39:38;98894.34;;;18.46;81.90
68169;BME280;54981;50.206;15.978;2023-05-14T09:42:09;98886.56;;;18.53;77.57
68169;BME280;54981;50.206;15.978;2023-05-14T09:44:39;98883.03;;;18.93;84.17
68169;BME280;54981;50.206;15.978;2023-05-14T09:47:10;98885.94;;;19.69;85.08
68169;BME280;54981;50.206;15.978;2023-05-14T09:49:40;98870.06;;;20.13;82.07
68169;BME280;54981;50.206;15.978;2023-05-14T09:52:10;98869.50;;;20.47;68.20
68169;BME280;54981;50.206;15.978;2023-05-14T09:54:41;98863.53;;;20.81;68.85
68169;BME280;54981;50.206;15.978;2023-05-14T09:57:11;98860.31;;;20.68;70.09
68169;BME280;54981;50.206;15.978;2023-05-14T09:59:42;98864.28;;;20.36;61.32
68169;BME280;54981;50.206;15.978;2023-05-14T10:02:21;98862.38;;;20.46;66.92
68169;BME280;54981;50.206;15.978;2023-05-14T10:04:53;98861.97;;;20.41;65.04
68169;BME280;54981;50.206;15.978;2023-05-14T10:07:26;98853.88;;;20.41;62.00
68169;BME280;54981;50.206;15.978;2023-05-14T10:10:01;98848.41;;;19.18;67.02
68169;BME280;54981;50.206;15.978;2023-05-14T10:12:33;98854.06;;;19.53;64.38
68169;BME280;54981;50.206;15.978;2023-05-14T10:15:12;98855.34;;;19.49;63.01
68169;BME280;54981;50.206;15.978;2023-05-14T10:17:48;98856.34;;;19.77;68.16
68169;BME280;54981;50.206;15.978;2023-05-14T10:20:22;98845.81;;;19.74;68.55
68169;BME280;54981;50.206;15.978;2023-05-14T10:22:54;98840.53;;;19.92;67.74
68169;BME280;54981;50.206;15.978;2023-05-14T10:25:25;98836.78;;;20.03;67.31
68169;BME280;54981;50.206;15.978;2023-05-14T10:27:56;98836.63;;;20.14;67.00
68169;BME280;54981;50.206;15.978;2023-05-14T10:30:27;98832.84;;;20.35;67.20
68169;BME280;54981;50.206;15.978;2023-05-14T10:33:08;98832.28;;;20.69;63.68
68169;BME280;54981;50.206;15.978;2023-05-14T10:36:00;98832.84;;;20.90;63.94
68169;BME280;54981;50.206;15.978;2023-05-14T10:38:33;98820.09;;;21.00;61.23
68169;BME280;54981;50.206;15.978;2023-05-14T10:41:06;98826.22;;;21.02;61.27
68169;BME280;54981;50.206;15.978;2023-05-14T10:43:40;98825.13;;;20.95;63.19
68169;BME280;54981;50.206;15.978;2023-05-14T10:46:12;98823.13;;;20.97;64.77
68169;BME280;54981;50.206;15.978;2023-05-14T10:48:43;98825.78;;;20.79;63.37
68169;BME280;54981;50.206;15.978;2023-05-14T10:51:14;98822.28;;;20.69;61.93
68169;BME280;54981;50.206;15.978;2023-05-14T10:53:46;98828.63;;;20.50;62.47
68169;BME280;54981;50.206;15.978;2023-05-14T10:56:17;98831.00;;;20.35;62.10
68169;BME280;54981;50.206;15.978;2023-05-14T10:58:48;98836.72;;;19.75;65.80
68169;BME280;54981;50.206;15.978;2023-05-14T11:01:22;98828.94;;;19.72;68.77
68169;BME280;54981;50.206;15.978;2023-05-14T11:03:53;98822.50;;;19.64;70.11
68169;BME280;54981;50.206;15.978;2023-05-14T11:06:27;98826.38;;;19.42;69.68
68169;BME280;54981;50.206;15.978;2023-05-14T11:08:59;98817.84;;;19.36;71.07
68169;BME280;54981;50.206;15.978;2023-05-14T11:11:30;98819.84;;;19.34;68.77
68169;BME280;54981;50.206;15.978;2023-05-14T11:14:01;98820.13;;;19.31;68.06
68169;BME280;54981;50.206;15.978;2023-05-14T11:16:31;98816.56;;;19.41;72.37
68169;BME280;54981;50.206;15.978;2023-05-14T11:19:03;98824.78;;;19.58;72.80
68169;BME280;54981;50.206;15.978;2023-05-14T11:21:33;98811.56;;;19.46;70.88
68169;BME280;54981;50.206;15.978;2023-05-14T11:24:04;98818.25;;;19.51;72.79
68169;BME280;54981;50.206;15.978;2023-05-14T11:26:36;98806.47;;;19.43;78.11
68169;BME280;54981;50.206;15.978;2023-05-14T11:29:06;98810.16;;;19.42;78.72
68169;BME280;54981;50.206;15.978;2023-05-14T11:31:37;98813.72;;;19.42;81.85
68169;BME280;54981;50.206;15.978;2023-05-14T11:34:07;98810.03;;;19.33;77.16
68169;BME280;54981;50.206;15.978;2023-05-14T11:36:39;98813.69;;;19.52;79.55
68169;BME280;54981;50.206;15.978;2023-05-14T11:39:16;98810.97;;;19.62;92.45
68169;BME280;54981;50.206;15.978;2023-05-14T11:41:47;98820.66;;;19.64;77.45
68169;BME280;54981;50.206;15.978;2023-05-14T11:44:18;98822.63;;;19.62;74.88
68169;BME280;54981;50.206;15.978;2023-05-14T11:46:55;98817.38;;;19.80;80.01
68169;BME280;54981;50.206;15.978;2023-05-14T11:49:27;98815.38;;;19.92;80.01
68169;BME280;54981;50.206;15.978;2023-05-14T11:52:03;98821.69;;;20.10;71.66
68169;BME280;54981;50.206;15.978;2023-05-14T11:54:33;98814.41;;;20.20;71.09
68169;BME280;54981;50.206;15.978;2023-05-14T11:57:12;98808.53;;;20.53;66.67
68169;BME280;54981;50.206;15.978;2023-05-14T11:59:43;98817.47;;;20.63;63.84
68169;BME280;54981;50.206;15.978;2023-05-14T12:02:15;98821.34;;;20.60;61.00
68169;BME280;54981;50.206;15.978;2023-05-14T12:04:49;98811.03;;;20.74;66.13
68169;BME280;54981;50.206;15.978;2023-05-14T12:07:22;98806.19;;;20.68;62.92
68169;BME280;54981;50.206;15.978;2023-05-14T12:09:53;98802.50;;;20.69;62.57
68169;BME280;54981;50.206;15.978;2023-05-14T12:12:23;98791.75;;;20.77;62.75
68169;BME280;54981;50.206;15.978;2023-05-14T12:14:53;98792.47;;;20.97;63.18
68169;BME280;54981;50.206;15.978;2023-05-14T12:17:24;98788.13;;;21.04;65.43
68169;BME280;54981;50.206;15.978;2023-05-14T12:19:55;98789.84;;;21.05;62.69
68169;BME280;54981;50.206;15.978;2023-05-14T12:22:28;98792.91;;;20.92;63.63
68169;BME280;54981;50.206;15.978;2023-05-14T12:24:58;98793.63;;;20.94;62.29
68169;BME280;54981;50.206;15.978;2023-05-14T12:27:29;98791.09;;;20.93;60.59
68169;BME280;54981;50.206;15.978;2023-05-14T12:30:05;98781.47;;;20.62;60.83
68169;BME280;54981;50.206;15.978;2023-05-14T12:32:37;98795.38;;;20.40;63.67
68169;BME280;54981;50.206;15.978;2023-05-14T12:35:09;98787.94;;;20.14;65.11
68169;BME280;54981;50.206;15.978;2023-05-14T12:37:40;98791.66;;;20.13;67.83
68169;BME280;54981;50.206;15.978;2023-05-14T12:40:11;98798.81;;;20.05;64.93
68169;BME280;54981;50.206;15.978;2023-05-14T12:42:42;98790.41;;;20.08;65.57
68169;BME280;54981;50.206;15.978;2023-05-14T12:45:12;98784.28;;;20.06;69.96
68169;BME280;54981;50.206;15.978;2023-05-14T12:47:42;98790.06;;;20.20;67.09
68169;BME280;54981;50.206;15.978;2023-05-14T12:50:13;98784.53;;;20.12;69.65
68169;BME280;54981;50.206;15.978;2023-05-14T12:52:43;98789.38;;;20.18;63.76
68169;BME280;54981;50.206;15.978;2023-05-14T12:55:13;98794.16;;;19.97;66.25
68169;BME280;54981;50.206;15.978;2023-05-14T12:57:44;98790.78;;;19.85;65.53
68169;BME280;54981;50.206;15.978;2023-05-14T13:00:14;98785.22;;;19.87;62.77
68169;BME280;54981;50.206;15.978;2023-05-14T13:02:45;98794.94;;;19.79;64.78
68169;BME280;54981;50.206;15.978;2023-05-14T13:05:15;98786.22;;;19.86;61.99
68169;BME280;54981;50.206;15.978;2023-05-14T13:07:46;98788.06;;;19.85;60.54